📊 Raw Sensor Data
Showing records 46951 to 46975 of 85,079 total
| ID | Distance (ft) | Battery V | Battery A | Int Temp (°F) | Int Humid (%) | Ext Temp (°F) | Solar V | RSSI | SNR | Time Stamp |
|---|---|---|---|---|---|---|---|---|---|---|
| 38141 | 15.0 | 3.83 | -10 | 44 | 41 | 46 | 4.50 | -90 | 8 | 04/18/2025 06:30 AM |
| 38140 | -- | 3.84 | -5 | 43 | 41 | 45 | 1.00 | -92 | 6 | 04/18/2025 06:15 AM |
| 38139 | -- | 3.84 | -5 | 43 | 41 | 44 | 0.00 | -92 | 5 | 04/18/2025 06:00 AM |
| 38138 | 15.1 | 3.84 | -5 | 43 | 41 | 44 | 0.00 | -91 | 8 | 04/18/2025 05:45 AM |
| 38137 | 15.1 | 3.84 | -5 | 42 | 41 | 44 | 0.00 | -92 | 6 | 04/18/2025 05:30 AM |
| 38136 | -- | 3.84 | -5 | 43 | 42 | 44 | 0.00 | -90 | 6 | 04/18/2025 05:15 AM |
| 38135 | -- | 3.84 | -5 | 43 | 42 | 44 | 0.00 | -89 | 7 | 04/18/2025 05:00 AM |
| 38134 | 15.2 | 3.84 | -5 | 43 | 42 | 44 | 0.00 | -86 | 7 | 04/18/2025 04:46 AM |
| 38133 | -- | 3.84 | -5 | 44 | 42 | 45 | 0.00 | -86 | 7 | 04/18/2025 04:30 AM |
| 38132 | -- | 3.84 | -5 | 45 | 42 | 45 | 0.00 | -86 | 6 | 04/18/2025 04:15 AM |
| 38131 | -- | 3.85 | -5 | 46 | 42 | 46 | 0.00 | -88 | 7 | 04/18/2025 04:00 AM |
| 38130 | -- | 3.85 | -5 | 47 | 42 | 48 | 0.00 | -89 | 7 | 04/18/2025 03:45 AM |
| 38129 | 15.2 | 3.90 | -5 | 47 | 42 | 48 | 0.00 | -91 | 5 | 04/18/2025 03:30 AM |
| 38128 | -- | 3.85 | -5 | 47 | 42 | 47 | 0.00 | -87 | 7 | 04/18/2025 03:15 AM |
| 38127 | -- | 3.90 | -5 | 49 | 41 | 49 | 0.00 | -88 | 6 | 04/18/2025 03:00 AM |
| 38126 | -- | 3.85 | -5 | 49 | 41 | 51 | 0.10 | -87 | 7 | 04/18/2025 02:46 AM |
| 38125 | 15.1 | 3.90 | -5 | 49 | 41 | 51 | 0.00 | -90 | 7 | 04/18/2025 02:30 AM |
| 38124 | 15.2 | 3.85 | -5 | 50 | 41 | 51 | 0.00 | -85 | 7 | 04/18/2025 02:15 AM |
| 38123 | 15.2 | 3.85 | -5 | 50 | 41 | 51 | 0.00 | -86 | 7 | 04/18/2025 02:00 AM |
| 38122 | 15.2 | 3.85 | -5 | 50 | 41 | 52 | 0.00 | -86 | 7 | 04/18/2025 01:45 AM |
| 38121 | 15.1 | 3.85 | -5 | 50 | 42 | 52 | 0.10 | -90 | 8 | 04/18/2025 01:30 AM |
| 38120 | 15.2 | 3.85 | -5 | 50 | 42 | 52 | 0.00 | -99 | 4 | 04/18/2025 01:15 AM |
| 38119 | 15.2 | 3.85 | -5 | 50 | 42 | 52 | 0.00 | -87 | 7 | 04/18/2025 01:00 AM |
| 38118 | 15.2 | 3.85 | -5 | 50 | 42 | 52 | 0.00 | -91 | 5 | 04/18/2025 12:45 AM |
| 38117 | 15.3 | 3.85 | -5 | 50 | 42 | 52 | 0.00 | -85 | 8 | 04/18/2025 12:30 AM |